Time;durP1;ratioP1;P1;durP2;ratioP2;P2;SDS_P1;SDS_P2;PMS_P1;PMS_P2;Temp;Humidity;BMP_temperature;BMP_pressure;BME280_temperature;BME280_humidity;BME280_pressure;Samples;Min_cycle;Max_cycle;Signal;HPM_P1;HPM_P2
2024/01/04 00:00:40;;;;;;;1.30;1.30;;;;;;;;;;4993168;28;20240;-93
2024/01/04 00:03:07;;;;;;;1.17;1.17;;;;;;;;;;4994312;28;20215;-92
2024/01/04 00:05:34;;;;;;;1.43;1.33;;;;;;;;;;4992981;28;20240;-91
2024/01/04 00:08:01;;;;;;;1.40;1.40;;;;;;;;;;4993463;28;20204;-92
2024/01/04 00:10:38;;;;;;;1.13;1.13;;;;;;;;;;4992922;28;20262;-91
2024/01/04 00:13:06;;;;;;;6.13;1.67;;;;;;;;;;4993826;28;20211;-93
2024/01/04 00:15:34;;;;;;;1.10;1.10;;;;;;;;;;4992768;28;20235;-92
2024/01/04 00:18:03;;;;;;;1.10;1.10;;;;;;;;;;4993300;28;20223;-90
2024/01/04 00:20:30;;;;;;;2.33;1.40;;;;;;;;;;4993291;28;20242;-92
2024/01/04 00:22:57;;;;;;;0.97;0.97;;;;;;;;;;4993251;28;20216;-92
2024/01/04 00:25:24;;;;;;;1.27;1.27;;;;;;;;;;4986000;28;20283;-92
2024/01/04 00:27:52;;;;;;;1.83;1.30;;;;;;;;;;4993437;28;20254;-92
2024/01/04 00:30:20;;;;;;;1.50;1.13;;;;;;;;;;4996224;28;20231;-92
2024/01/04 00:32:47;;;;;;;1.20;1.20;;;;;;;;;;4997151;28;20224;-92
2024/01/04 00:35:15;;;;;;;1.20;1.20;;;;;;;;;;4998184;28;20216;-92
2024/01/04 00:37:42;;;;;;;1.53;1.40;;;;;;;;;;5016699;28;20226;-92
2024/01/04 00:40:09;;;;;;;1.20;1.20;;;;;;;;;;5016295;28;20235;-91
2024/01/04 00:42:36;;;;;;;2.03;1.20;;;;;;;;;;5016774;28;20207;-92
2024/01/04 00:45:04;;;;;;;1.00;1.00;;;;;;;;;;5015994;28;20218;-91
2024/01/04 00:47:32;;;;;;;1.20;1.20;;;;;;;;;;5016766;28;20231;-93
2024/01/04 00:49:59;;;;;;;1.10;1.10;;;;;;;;;;5016593;28;20250;-92
2024/01/04 00:52:26;;;;;;;1.10;1.10;;;;;;;;;;5007751;28;20290;-93
2024/01/04 00:54:53;;;;;;;1.20;1.20;;;;;;;;;;5009435;28;20266;-91
2024/01/04 00:57:20;;;;;;;2.10;1.60;;;;;;;;;;5015269;28;20935;-92
2024/01/04 00:59:47;;;;;;;1.30;1.20;;;;;;;;;;5016253;28;20234;-92
2024/01/04 01:02:14;;;;;;;1.90;1.13;;;;;;;;;;5017318;28;20227;-92
2024/01/04 01:04:42;;;;;;;1.10;1.10;;;;;;;;;;5021421;28;20566;-92
2024/01/04 01:07:09;;;;;;;1.30;1.30;;;;;;;;;;5013737;28;20246;-93
2024/01/04 01:09:36;;;;;;;1.23;1.23;;;;;;;;;;5016276;28;20227;-91
2024/01/04 01:12:04;;;;;;;3.23;1.70;;;;;;;;;;5015817;28;20231;-92
2024/01/04 01:14:31;;;;;;;1.60;1.50;;;;;;;;;;5015824;28;20566;-92
2024/01/04 01:16:58;;;;;;;1.40;1.30;;;;;;;;;;5015326;28;20772;-93
2024/01/04 01:19:25;;;;;;;1.67;1.50;;;;;;;;;;5016195;28;20220;-92
2024/01/04 01:21:54;;;;;;;3.20;1.30;;;;;;;;;;5015381;28;20250;-92
2024/01/04 01:24:21;;;;;;;1.10;1.10;;;;;;;;;;5015727;28;20218;-91
2024/01/04 01:26:48;;;;;;;2.40;1.70;;;;;;;;;;5015565;28;20235;-91
2024/01/04 01:29:15;;;;;;;1.33;1.30;;;;;;;;;;5016170;28;20317;-92
2024/01/04 01:31:42;;;;;;;2.73;1.57;;;;;;;;;;5015150;28;20775;-93
2024/01/04 01:34:09;;;;;;;1.40;1.40;;;;;;;;;;5015822;28;20203;-91
2024/01/04 01:36:36;;;;;;;2.27;1.50;;;;;;;;;;5002489;28;20228;-92
2024/01/04 01:39:04;;;;;;;1.70;1.43;;;;;;;;;;5002565;28;20281;-91
2024/01/04 01:41:31;;;;;;;2.07;1.70;;;;;;;;;;4999586;28;20227;-92
2024/01/04 01:43:58;;;;;;;1.70;1.43;;;;;;;;;;5015449;28;20211;-92
2024/01/04 01:46:25;;;;;;;3.20;1.47;;;;;;;;;;5015040;28;20235;-92
2024/01/04 01:48:52;;;;;;;3.33;1.90;;;;;;;;;;5015406;28;20224;-91
2024/01/04 01:51:20;;;;;;;2.07;1.20;;;;;;;;;;5014729;28;20231;-92
2024/01/04 01:53:47;;;;;;;2.07;1.50;;;;;;;;;;5015343;28;20231;-92
2024/01/04 01:56:15;;;;;;;1.37;1.20;;;;;;;;;;5005417;28;20240;-92
2024/01/04 01:58:42;;;;;;;3.07;1.57;;;;;;;;;;4995830;28;20231;-92
2024/01/04 02:01:09;;;;;;;1.50;1.40;;;;;;;;;;4995344;28;20262;-92
2024/01/04 02:03:37;;;;;;;1.17;1.17;;;;;;;;;;4995533;28;20733;-91
2024/01/04 02:06:04;;;;;;;2.90;1.33;;;;;;;;;;4995245;28;20310;-92
2024/01/04 02:08:33;;;;;;;1.50;1.40;;;;;;;;;;4989548;28;20232;-92
2024/01/04 02:11:00;;;;;;;3.70;1.40;;;;;;;;;;4995479;28;20236;-92
2024/01/04 02:13:28;;;;;;;1.90;1.37;;;;;;;;;;4995429;28;20988;-91
2024/01/04 02:15:55;;;;;;;1.23;1.23;;;;;;;;;;4994964;28;20297;-92
2024/01/04 02:18:22;;;;;;;1.40;1.30;;;;;;;;;;4995214;28;20228;-92
2024/01/04 02:20:49;;;;;;;4.93;1.70;;;;;;;;;;4994840;28;20801;-91
2024/01/04 02:23:18;;;;;;;3.40;1.40;;;;;;;;;;4995159;28;20208;-92
2024/01/04 02:25:45;;;;;;;1.80;1.27;;;;;;;;;;5000760;28;20227;-92
2024/01/04 02:28:12;;;;;;;1.93;1.50;;;;;;;;;;5014829;28;20227;-92
2024/01/04 02:30:39;;;;;;;1.67;1.40;;;;;;;;;;5009333;28;20232;-91
2024/01/04 02:33:06;;;;;;;1.50;1.27;;;;;;;;;;4995091;28;20228;-92
2024/01/04 02:35:33;;;;;;;1.13;1.13;;;;;;;;;;4994444;28;20290;-91
2024/01/04 02:38:00;;;;;;;1.60;1.30;;;;;;;;;;4994874;28;20568;-92
2024/01/04 02:40:30;;;;;;;1.13;1.13;;;;;;;;;;4994627;28;20232;-91
2024/01/04 02:42:57;;;;;;;2.40;1.50;;;;;;;;;;4995196;28;20210;-91
2024/01/04 02:45:24;;;;;;;3.17;1.40;;;;;;;;;;4995280;28;20859;-92
2024/01/04 02:47:51;;;;;;;1.07;1.07;;;;;;;;;;4995500;28;20215;-91
2024/01/04 02:50:23;;;;;;;1.77;1.67;;;;;;;;;;4994492;28;20698;-91
2024/01/04 02:52:50;;;;;;;1.20;1.20;;;;;;;;;;4994176;28;20235;-92
2024/01/04 02:55:17;;;;;;;1.20;1.20;;;;;;;;;;4995213;28;20253;-91
2024/01/04 02:57:45;;;;;;;1.20;1.20;;;;;;;;;;4997087;28;20220;-90
2024/01/04 03:00:17;;;;;;;1.10;1.10;;;;;;;;;;4995168;28;20234;-90
2024/01/04 03:02:44;;;;;;;2.57;1.60;;;;;;;;;;4995093;28;20200;-91
2024/01/04 03:05:11;;;;;;;1.30;1.20;;;;;;;;;;4995336;28;20208;-90
2024/01/04 03:07:38;;;;;;;1.30;1.20;;;;;;;;;;5009436;28;20207;-90
2024/01/04 03:10:05;;;;;;;1.37;1.30;;;;;;;;;;5016204;28;20713;-90
2024/01/04 03:12:32;;;;;;;1.40;1.30;;;;;;;;;;5016492;28;20219;-91
2024/01/04 03:15:01;;;;;;;1.53;1.43;;;;;;;;;;5014768;28;20214;-92
2024/01/04 03:17:28;;;;;;;2.20;1.37;;;;;;;;;;5013394;28;20238;-91
2024/01/04 03:19:55;;;;;;;1.43;1.30;;;;;;;;;;5013731;28;20231;-92
2024/01/04 03:22:22;;;;;;;1.50;1.40;;;;;;;;;;5003345;28;20710;-92
2024/01/04 03:24:49;;;;;;;1.20;1.20;;;;;;;;;;4994340;28;20207;-92
2024/01/04 03:27:16;;;;;;;1.30;1.20;;;;;;;;;;5011971;28;20231;-92
2024/01/04 03:29:43;;;;;;;1.10;1.10;;;;;;;;;;5013540;28;20226;-92
2024/01/04 03:32:11;;;;;;;1.23;1.23;;;;;;;;;;5013326;28;20227;-93
2024/01/04 03:34:38;;;;;;;1.10;1.10;;;;;;;;;;5013493;28;20211;-92
2024/01/04 03:37:05;;;;;;;1.30;1.20;;;;;;;;;;5013112;28;20231;-91
2024/01/04 03:39:32;;;;;;;1.20;1.20;;;;;;;;;;5013319;28;20273;-91
2024/01/04 03:41:59;;;;;;;1.50;1.40;;;;;;;;;;5013157;28;20235;-93
2024/01/04 03:44:26;;;;;;;1.10;1.10;;;;;;;;;;5013550;28;20215;-92
2024/01/04 03:46:53;;;;;;;1.10;1.10;;;;;;;;;;5013194;28;20298;-92
2024/01/04 03:49:22;;;;;;;1.10;1.10;;;;;;;;;;5013312;28;20258;-92
2024/01/04 03:51:49;;;;;;;1.30;1.20;;;;;;;;;;5013163;28;20231;-92
2024/01/04 03:54:16;;;;;;;1.10;1.10;;;;;;;;;;5013300;28;20200;-91
2024/01/04 03:56:43;;;;;;;1.53;1.53;;;;;;;;;;5000675;28;20227;-92
2024/01/04 03:59:10;;;;;;;2.00;1.30;;;;;;;;;;5001819;28;20224;-92
2024/01/04 04:01:43;;;;;;;1.20;1.20;;;;;;;;;;5006481;28;20242;-92
2024/01/04 04:04:10;;;;;;;1.40;1.30;;;;;;;;;;5015065;28;20294;-94
2024/01/04 04:06:39;;;;;;;1.00;1.00;;;;;;;;;;5016930;28;20234;-93
2024/01/04 04:09:06;;;;;;;1.10;1.10;;;;;;;;;;5017395;28;20736;-92
2024/01/04 04:11:33;;;;;;;1.47;1.37;;;;;;;;;;5016686;28;20227;-92
2024/01/04 04:14:00;;;;;;;1.43;1.20;;;;;;;;;;5021121;28;20234;-92
2024/01/04 04:16:28;;;;;;;1.10;1.10;;;;;;;;;;5018971;28;20234;-93
2024/01/04 04:18:55;;;;;;;1.30;1.20;;;;;;;;;;5018512;28;20242;-91
2024/01/04 04:21:22;;;;;;;1.00;1.00;;;;;;;;;;5017117;28;20235;-92
2024/01/04 04:23:51;;;;;;;1.37;1.37;;;;;;;;;;5017440;28;20277;-92
2024/01/04 04:26:18;;;;;;;1.20;1.20;;;;;;;;;;5016257;28;20236;-93
2024/01/04 04:28:45;;;;;;;1.33;1.27;;;;;;;;;;5016575;28;20290;-93
2024/01/04 04:31:15;;;;;;;1.37;1.37;;;;;;;;;;5016690;28;20853;-91
2024/01/04 04:33:42;;;;;;;1.57;1.50;;;;;;;;;;5016853;28;20242;-93
2024/01/04 04:36:09;;;;;;;1.30;1.20;;;;;;;;;;5016214;28;20321;-92
2024/01/04 04:38:36;;;;;;;1.50;1.40;;;;;;;;;;5016874;28;20309;-92
2024/01/04 04:41:05;;;;;;;1.13;1.13;;;;;;;;;;5008342;28;20263;-93
2024/01/04 04:43:32;;;;;;;2.33;1.40;;;;;;;;;;4997160;28;20208;-93
2024/01/04 04:45:59;;;;;;;3.93;1.30;;;;;;;;;;4996681;28;20630;-93
2024/01/04 04:48:26;;;;;;;1.60;1.23;;;;;;;;;;4997418;28;20566;-92
2024/01/04 04:50:54;;;;;;;1.10;1.10;;;;;;;;;;4996664;28;20231;-92
2024/01/04 04:53:21;;;;;;;0.93;0.93;;;;;;;;;;4996929;28;20252;-92
2024/01/04 04:55:48;;;;;;;2.10;1.20;;;;;;;;;;4996458;28;20235;-92
2024/01/04 04:58:16;;;;;;;1.00;1.00;;;;;;;;;;4996755;28;20282;-92
2024/01/04 05:00:43;;;;;;;1.10;1.10;;;;;;;;;;4996719;28;20681;-92
2024/01/04 05:03:10;;;;;;;1.20;1.20;;;;;;;;;;4997405;28;20204;-92
2024/01/04 05:05:37;;;;;;;1.60;1.20;;;;;;;;;;4996219;28;20232;-92
2024/01/04 05:08:05;;;;;;;1.20;1.20;;;;;;;;;;4996819;28;20220;-91
2024/01/04 05:10:32;;;;;;;1.20;1.20;;;;;;;;;;4996979;28;20236;-90
2024/01/04 05:12:59;;;;;;;1.10;1.10;;;;;;;;;;4996428;28;20239;-86
2024/01/04 05:15:28;;;;;;;1.27;1.27;;;;;;;;;;4994473;28;20255;-86
2024/01/04 05:17:56;;;;;;;1.20;1.20;;;;;;;;;;4995807;28;20296;-86
2024/01/04 05:20:23;;;;;;;1.00;1.00;;;;;;;;;;4995251;28;20263;-86
2024/01/04 05:22:50;;;;;;;1.20;1.20;;;;;;;;;;4996667;28;20214;-90
2024/01/04 05:25:17;;;;;;;1.40;1.30;;;;;;;;;;4995612;28;20211;-88
2024/01/04 05:27:44;;;;;;;2.53;1.20;;;;;;;;;;4995780;28;20213;-87
2024/01/04 05:30:11;;;;;;;1.37;1.27;;;;;;;;;;4995421;28;20224;-86
2024/01/04 05:32:40;;;;;;;1.10;1.10;;;;;;;;;;4994663;28;20228;-87
2024/01/04 05:35:07;;;;;;;1.83;1.30;;;;;;;;;;4994622;28;20209;-88
2024/01/04 05:37:34;;;;;;;1.20;1.20;;;;;;;;;;4994690;28;20215;-86
2024/01/04 05:40:02;;;;;;;1.00;1.00;;;;;;;;;;4990277;28;20599;-87
2024/01/04 05:42:29;;;;;;;1.63;1.53;;;;;;;;;;5014449;28;20219;-85
2024/01/04 05:44:56;;;;;;;1.40;1.30;;;;;;;;;;5014633;28;20262;-88
2024/01/04 05:47:23;;;;;;;1.60;1.50;;;;;;;;;;5014445;28;20231;-91
2024/01/04 05:49:51;;;;;;;1.77;1.20;;;;;;;;;;5015055;28;20768;-86
2024/01/04 05:52:18;;;;;;;1.20;1.10;;;;;;;;;;4996498;28;20228;-86
2024/01/04 05:54:45;;;;;;;2.00;1.37;;;;;;;;;;4996604;28;20611;-85
2024/01/04 05:57:12;;;;;;;1.40;1.30;;;;;;;;;;4995286;28;20236;-86
2024/01/04 05:59:39;;;;;;;1.60;1.50;;;;;;;;;;4995445;28;20220;-87
2024/01/04 06:02:06;;;;;;;1.43;1.40;;;;;;;;;;4995350;28;20231;-86
2024/01/04 06:04:33;;;;;;;1.50;1.40;;;;;;;;;;4995245;28;20230;-87
2024/01/04 06:07:02;;;;;;;4.53;1.93;;;;;;;;;;4995062;28;20235;-86
2024/01/04 06:09:29;;;;;;;2.10;2.00;;;;;;;;;;4995184;28;20227;-86
2024/01/04 06:11:56;;;;;;;1.37;1.30;;;;;;;;;;4994578;28;20231;-86
2024/01/04 06:14:23;;;;;;;1.30;1.30;;;;;;;;;;4994367;28;20224;-84
2024/01/04 06:16:50;;;;;;;1.10;1.10;;;;;;;;;;4994088;28;20236;-84
2024/01/04 06:19:17;;;;;;;1.20;1.20;;;;;;;;;;4994382;28;20228;-85
2024/01/04 06:21:44;;;;;;;1.30;1.30;;;;;;;;;;4993756;28;20717;-85
2024/01/04 06:24:12;;;;;;;1.57;1.57;;;;;;;;;;4994157;28;20220;-85
2024/01/04 06:26:41;;;;;;;1.33;1.27;;;;;;;;;;4993542;28;20231;-84
2024/01/04 06:29:08;;;;;;;1.50;1.40;;;;;;;;;;4995221;28;20224;-84
2024/01/04 06:31:35;;;;;;;2.27;2.17;;;;;;;;;;4994152;28;20236;-84
2024/01/04 06:34:02;;;;;;;1.70;1.60;;;;;;;;;;4994459;28;20232;-88
2024/01/04 06:36:29;;;;;;;1.87;1.63;;;;;;;;;;4993781;28;20609;-84
2024/01/04 06:38:56;;;;;;;1.10;1.10;;;;;;;;;;4993648;28;20275;-84
2024/01/04 06:41:29;;;;;;;1.30;1.30;;;;;;;;;;4984501;28;20247;-84
2024/01/04 06:43:56;;;;;;;1.67;1.30;;;;;;;;;;4995672;28;20231;-85
2024/01/04 06:46:23;;;;;;;1.30;1.30;;;;;;;;;;4993878;28;20235;-84
2024/01/04 06:48:50;;;;;;;1.90;1.27;;;;;;;;;;4994301;28;20287;-84
2024/01/04 06:51:17;;;;;;;1.10;1.10;;;;;;;;;;4994198;28;20295;-84
2024/01/04 06:53:44;;;;;;;1.10;1.10;;;;;;;;;;4994253;28;20227;-84
2024/01/04 06:56:12;;;;;;;3.00;1.43;;;;;;;;;;4993200;28;20244;-84
2024/01/04 06:58:40;;;;;;;1.80;1.60;;;;;;;;;;4993608;28;20232;-84
2024/01/04 07:01:07;;;;;;;1.60;1.50;;;;;;;;;;4993349;28;20255;-84
2024/01/04 07:03:34;;;;;;;1.50;1.40;;;;;;;;;;4993019;28;20215;-83
2024/01/04 07:06:02;;;;;;;1.20;1.20;;;;;;;;;;4992855;28;20621;-85
2024/01/04 07:08:29;;;;;;;3.20;1.50;;;;;;;;;;4993195;28;20224;-84
2024/01/04 07:10:56;;;;;;;1.83;1.50;;;;;;;;;;4992666;28;20232;-85
2024/01/04 07:13:23;;;;;;;1.33;1.30;;;;;;;;;;4992110;28;20228;-85
2024/01/04 07:15:52;;;;;;;1.60;1.50;;;;;;;;;;4992903;28;20298;-85
2024/01/04 07:18:19;;;;;;;1.17;1.17;;;;;;;;;;4993015;28;20310;-85
2024/01/04 07:20:46;;;;;;;1.43;1.33;;;;;;;;;;4992493;28;20266;-85
2024/01/04 07:23:13;;;;;;;2.60;1.50;;;;;;;;;;4992810;28;20670;-84
2024/01/04 07:25:40;;;;;;;1.33;1.30;;;;;;;;;;4992140;28;20235;-85
2024/01/04 07:28:07;;;;;;;1.40;1.40;;;;;;;;;;4993551;28;20674;-87
2024/01/04 07:30:35;;;;;;;1.60;1.50;;;;;;;;;;4993361;28;20239;-86
2024/01/04 07:33:03;;;;;;;2.53;1.30;;;;;;;;;;4994168;28;20291;-87
2024/01/04 07:35:30;;;;;;;1.10;1.10;;;;;;;;;;4993036;28;20262;-86
2024/01/04 07:37:58;;;;;;;1.33;1.33;;;;;;;;;;4994108;28;20215;-88
2024/01/04 07:40:25;;;;;;;1.30;1.20;;;;;;;;;;4992671;28;20289;-86
2024/01/04 07:42:52;;;;;;;1.20;1.20;;;;;;;;;;4994279;28;20633;-88
2024/01/04 07:45:19;;;;;;;1.17;1.17;;;;;;;;;;4993697;28;20207;-87
2024/01/04 07:47:48;;;;;;;1.20;1.20;;;;;;;;;;4994246;28;20582;-87
2024/01/04 07:50:16;;;;;;;1.17;1.13;;;;;;;;;;4993442;28;20322;-85
2024/01/04 07:52:43;;;;;;;1.20;1.20;;;;;;;;;;4988224;28;20211;-87
2024/01/04 07:55:10;;;;;;;1.50;1.40;;;;;;;;;;4992932;28;20235;-87
2024/01/04 07:57:37;;;;;;;1.10;1.10;;;;;;;;;;4993336;28;20618;-88
2024/01/04 08:00:05;;;;;;;1.10;1.10;;;;;;;;;;4993042;28;20234;-86
2024/01/04 08:02:32;;;;;;;1.10;1.10;;;;;;;;;;4993010;28;20211;-87
2024/01/04 08:04:59;;;;;;;2.73;1.40;;;;;;;;;;4993370;28;20228;-86
2024/01/04 08:07:28;;;;;;;1.50;1.40;;;;;;;;;;4992545;28;20247;-87
2024/01/04 08:09:55;;;;;;;1.03;1.03;;;;;;;;;;4993064;28;20777;-87
2024/01/04 08:12:22;;;;;;;1.13;1.13;;;;;;;;;;4992524;28;20232;-87
2024/01/04 08:14:49;;;;;;;1.50;1.40;;;;;;;;;;4993199;28;20239;-87
2024/01/04 08:17:16;;;;;;;1.40;1.40;;;;;;;;;;4992773;28;20228;-87
2024/01/04 08:19:43;;;;;;;1.20;1.20;;;;;;;;;;4993421;28;20228;-87
2024/01/04 08:22:21;;;;;;;1.30;1.30;;;;;;;;;;4992762;28;20714;-87
2024/01/04 08:24:49;;;;;;;1.37;1.27;;;;;;;;;;4991324;28;20196;-87
2024/01/04 08:27:19;;;;;;;1.30;1.30;;;;;;;;;;4993144;28;20239;-87
2024/01/04 08:29:48;;;;;;;1.40;1.40;;;;;;;;;;4993358;28;20243;-87
2024/01/04 08:32:15;;;;;;;1.20;1.20;;;;;;;;;;4993062;28;20236;-88
2024/01/04 08:34:42;;;;;;;1.47;1.37;;;;;;;;;;4992797;28;20232;-87
2024/01/04 08:37:09;;;;;;;2.07;1.33;;;;;;;;;;4992846;28;20236;-87
2024/01/04 08:39:36;;;;;;;1.50;1.40;;;;;;;;;;4992882;28;20228;-87
2024/01/04 08:42:05;;;;;;;1.70;1.60;;;;;;;;;;4992504;28;20281;-88
2024/01/04 08:44:32;;;;;;;1.73;1.50;;;;;;;;;;4992699;28;20200;-87
2024/01/04 08:47:00;;;;;;;1.47;1.47;;;;;;;;;;4992025;28;20228;-85
2024/01/04 08:49:27;;;;;;;2.83;1.40;;;;;;;;;;4992609;28;20231;-86
2024/01/04 08:51:55;;;;;;;1.47;1.47;;;;;;;;;;4994399;28;20729;-85
2024/01/04 08:54:22;;;;;;;1.37;1.27;;;;;;;;;;4995560;28;20225;-86
2024/01/04 08:56:49;;;;;;;2.00;1.10;;;;;;;;;;4995707;28;20231;-85
2024/01/04 08:59:17;;;;;;;1.53;1.43;;;;;;;;;;4996309;28;20228;-85
2024/01/04 09:01:44;;;;;;;1.57;1.47;;;;;;;;;;4995697;28;20240;-83
2024/01/04 09:04:12;;;;;;;1.40;1.30;;;;;;;;;;4995848;28;20284;-83
2024/01/04 09:06:39;;;;;;;1.67;1.57;;;;;;;;;;4994832;28;20259;-84
2024/01/04 09:09:07;;;;;;;1.50;1.40;;;;;;;;;;4995734;28;20236;-83
2024/01/04 09:11:39;;;;;;;1.53;1.47;;;;;;;;;;4994935;28;20228;-84
2024/01/04 09:14:11;;;;;;;1.80;1.57;;;;;;;;;;4995468;28;20667;-84
2024/01/04 09:16:39;;;;;;;3.63;1.60;;;;;;;;;;4994771;28;20240;-84
2024/01/04 09:19:07;;;;;;;2.63;1.50;;;;;;;;;;4991711;28;20228;-86
2024/01/04 09:21:34;;;;;;;1.60;1.50;;;;;;;;;;4995789;28;20699;-87
2024/01/04 09:24:01;;;;;;;2.03;1.63;;;;;;;;;;4996345;28;20734;-87
2024/01/04 09:26:28;;;;;;;2.20;1.93;;;;;;;;;;4994857;28;20319;-86
2024/01/04 09:28:55;;;;;;;1.63;1.53;;;;;;;;;;4988444;28;20266;-87
2024/01/04 09:31:22;;;;;;;3.47;2.03;;;;;;;;;;4996187;28;20232;-86
2024/01/04 09:33:50;;;;;;;1.30;1.20;;;;;;;;;;4995824;28;20718;-87
2024/01/04 09:36:17;;;;;;;1.90;1.80;;;;;;;;;;4998341;28;20255;-87
2024/01/04 09:38:44;;;;;;;2.97;1.97;;;;;;;;;;4997446;28;20738;-86
2024/01/04 09:41:18;;;;;;;2.17;1.47;;;;;;;;;;4996607;28;20239;-87
2024/01/04 09:43:45;;;;;;;1.70;1.60;;;;;;;;;;4997462;28;20212;-88
2024/01/04 09:46:15;;;;;;;1.93;1.50;;;;;;;;;;5016481;28;20212;-86
2024/01/04 09:48:43;;;;;;;2.80;1.90;;;;;;;;;;5017662;28;20271;-87
2024/01/04 09:51:13;;;;;;;2.90;2.20;;;;;;;;;;5017834;28;20228;-87
2024/01/04 09:53:41;;;;;;;1.90;1.80;;;;;;;;;;5017022;28;20201;-87
2024/01/04 09:56:08;;;;;;;3.87;1.77;;;;;;;;;;5017300;28;20227;-86
2024/01/04 09:58:35;;;;;;;3.33;1.57;;;;;;;;;;5018340;28;20283;-87
2024/01/04 10:01:03;;;;;;;3.60;2.13;;;;;;;;;;5018560;28;20228;-86
2024/01/04 10:03:30;;;;;;;5.00;2.00;;;;;;;;;;4998858;28;20223;-87
2024/01/04 10:05:57;;;;;;;1.90;1.80;;;;;;;;;;4988591;28;20235;-87
2024/01/04 10:08:30;;;;;;;2.87;2.10;;;;;;;;;;4996981;28;20251;-87
2024/01/04 10:11:02;;;;;;;2.60;2.07;;;;;;;;;;4995904;28;20258;-87
2024/01/04 10:13:30;;;;;;;5.50;1.80;;;;;;;;;;4996072;28;20204;-87
2024/01/04 10:15:57;;;;;;;3.77;2.00;;;;;;;;;;4986815;28;20306;-86
2024/01/04 10:18:24;;;;;;;2.67;1.50;;;;;;;;;;4995849;28;20223;-87
2024/01/04 10:21:10;;;;;;;7.10;1.80;;;;;;;;;;4995399;28;20246;-87
2024/01/04 10:23:43;;;;;;;4.43;1.87;;;;;;;;;;4995921;28;20236;-87
2024/01/04 10:26:11;;;;;;;3.20;1.77;;;;;;;;;;4995000;28;20228;-87
2024/01/04 10:28:39;;;;;;;4.07;1.70;;;;;;;;;;4994996;28;20735;-85
2024/01/04 10:31:08;;;;;;;3.00;1.73;;;;;;;;;;4995255;28;20228;-85
2024/01/04 10:33:35;;;;;;;1.80;1.70;;;;;;;;;;4995314;28;20235;-86
2024/01/04 10:36:08;;;;;;;4.77;2.00;;;;;;;;;;4994859;28;20236;-87
2024/01/04 10:38:37;;;;;;;2.40;1.63;;;;;;;;;;4992334;28;20322;-86
2024/01/04 10:41:05;;;;;;;1.67;1.43;;;;;;;;;;4978510;28;20267;-86
2024/01/04 10:43:32;;;;;;;7.80;3.07;;;;;;;;;;4991720;28;20204;-85
2024/01/04 10:46:05;;;;;;;6.43;1.80;;;;;;;;;;4994691;28;20243;-85
2024/01/04 10:48:32;;;;;;;4.63;2.87;;;;;;;;;;4995099;28;20231;-86
2024/01/04 10:51:03;;;;;;;2.73;2.40;;;;;;;;;;5002438;28;20231;-86
2024/01/04 10:53:32;;;;;;;2.17;1.97;;;;;;;;;;5014152;28;20235;-87
2024/01/04 10:56:00;;;;;;;2.33;2.10;;;;;;;;;;5005615;28;20258;-86
2024/01/04 10:58:28;;;;;;;3.80;2.13;;;;;;;;;;5009536;28;20815;-86
2024/01/04 11:00:55;;;;;;;2.97;1.93;;;;;;;;;;5013072;28;20234;-86
2024/01/04 11:03:23;;;;;;;1.90;1.80;;;;;;;;;;5013806;28;20573;-86
2024/01/04 11:05:50;;;;;;;1.50;1.40;;;;;;;;;;5013380;28;20725;-85
2024/01/04 11:08:18;;;;;;;1.90;1.80;;;;;;;;;;5014599;28;20258;-86
2024/01/04 11:10:46;;;;;;;4.00;1.57;;;;;;;;;;5008145;28;20302;-87
2024/01/04 11:13:13;;;;;;;2.90;1.70;;;;;;;;;;4993964;28;20219;-87
2024/01/04 11:15:41;;;;;;;3.17;1.80;;;;;;;;;;4993799;28;20319;-87
2024/01/04 11:18:16;;;;;;;3.40;1.87;;;;;;;;;;4994469;28;20215;-88
2024/01/04 11:20:52;;;;;;;3.90;1.83;;;;;;;;;;4994098;28;20246;-88
2024/01/04 11:23:28;;;;;;;3.80;1.63;;;;;;;;;;4994483;28;20238;-87
2024/01/04 11:26:10;;;;;;;3.80;1.90;;;;;;;;;;4992435;28;20231;-87
2024/01/04 11:28:37;;;;;;;1.30;1.30;;;;;;;;;;4993590;28;20223;-86
2024/01/04 11:31:06;;;;;;;4.23;2.03;;;;;;;;;;4993572;28;20232;-87
2024/01/04 11:33:33;;;;;;;3.90;1.90;;;;;;;;;;4992912;28;20207;-85
2024/01/04 11:36:00;;;;;;;1.50;1.33;;;;;;;;;;4992609;28;20933;-86
2024/01/04 11:38:34;;;;;;;2.37;1.80;;;;;;;;;;4994257;28;20256;-86
2024/01/04 11:41:01;;;;;;;1.90;1.80;;;;;;;;;;4993133;28;20258;-86
2024/01/04 11:43:35;;;;;;;5.23;2.10;;;;;;;;;;4992787;28;20242;-84
2024/01/04 11:46:02;;;;;;;5.87;1.93;;;;;;;;;;4992457;28;20227;-86
2024/01/04 11:48:31;;;;;;;3.10;1.80;;;;;;;;;;4993331;28;20235;-85
2024/01/04 11:51:00;;;;;;;4.43;1.80;;;;;;;;;;4992186;28;20720;-86
2024/01/04 11:53:28;;;;;;;2.70;1.40;;;;;;;;;;4992586;28;20204;-84
2024/01/04 11:56:07;;;;;;;5.37;2.00;;;;;;;;;;4992046;28;20710;-86
2024/01/04 11:58:34;;;;;;;2.33;1.33;;;;;;;;;;4993139;28;20224;-85
2024/01/04 12:01:02;;;;;;;3.07;2.00;;;;;;;;;;4992124;28;20239;-86
2024/01/04 12:03:31;;;;;;;4.80;1.83;;;;;;;;;;4992945;28;20218;-86
2024/01/04 12:06:00;;;;;;;4.40;1.97;;;;;;;;;;4991944;28;20237;-86
2024/01/04 12:08:28;;;;;;;2.50;2.10;;;;;;;;;;4993384;28;20232;-86
2024/01/04 12:10:56;;;;;;;4.70;1.83;;;;;;;;;;4991825;28;20319;-85
2024/01/04 12:13:23;;;;;;;3.33;1.90;;;;;;;;;;4992779;28;20258;-84
2024/01/04 12:15:52;;;;;;;3.90;3.03;;;;;;;;;;4991703;28;20712;-85
2024/01/04 12:18:20;;;;;;;5.70;2.07;;;;;;;;;;4992227;28;20239;-85
2024/01/04 12:20:49;;;;;;;3.07;2.27;;;;;;;;;;4998192;28;20326;-83
2024/01/04 12:23:16;;;;;;;4.63;1.93;;;;;;;;;;5006702;28;20219;-87
2024/01/04 12:25:43;;;;;;;4.50;1.63;;;;;;;;;;5010924;28;20238;-87
2024/01/04 12:28:11;;;;;;;1.63;1.50;;;;;;;;;;4996985;28;20235;-87
2024/01/04 12:30:38;;;;;;;2.43;1.50;;;;;;;;;;5001444;28;20281;-87
2024/01/04 12:33:06;;;;;;;7.13;1.80;;;;;;;;;;5015567;28;20203;-85
2024/01/04 12:35:33;;;;;;;3.70;1.87;;;;;;;;;;5015192;28;20235;-85
2024/01/04 12:38:03;;;;;;;2.60;1.57;;;;;;;;;;5015208;28;20203;-87
2024/01/04 12:40:40;;;;;;;4.63;1.73;;;;;;;;;;5015666;28;20227;-87
2024/01/04 12:43:08;;;;;;;3.23;1.83;;;;;;;;;;5016036;28;20217;-87
2024/01/04 12:45:35;;;;;;;3.70;1.90;;;;;;;;;;5016068;28;20314;-87
2024/01/04 12:48:02;;;;;;;3.27;1.50;;;;;;;;;;5015762;28;20261;-86
2024/01/04 12:50:36;;;;;;;4.43;1.47;;;;;;;;;;5012263;28;20242;-86
2024/01/04 12:53:05;;;;;;;1.83;1.73;;;;;;;;;;5014979;28;20206;-86
2024/01/04 12:55:34;;;;;;;2.53;1.97;;;;;;;;;;5015162;28;20243;-86
2024/01/04 12:58:01;;;;;;;3.90;2.30;;;;;;;;;;5015291;28;20192;-85
2024/01/04 13:00:28;;;;;;;4.70;1.63;;;;;;;;;;5015239;28;20235;-86
2024/01/04 13:02:56;;;;;;;2.23;1.70;;;;;;;;;;5015513;28;20290;-86
2024/01/04 13:05:23;;;;;;;3.57;1.90;;;;;;;;;;5015465;28;20620;-86
2024/01/04 13:07:51;;;;;;;1.80;1.30;;;;;;;;;;5015573;28;20203;-88
2024/01/04 13:10:19;;;;;;;5.40;2.07;;;;;;;;;;5015200;28;20246;-87
2024/01/04 13:12:46;;;;;;;2.00;1.80;;;;;;;;;;5015516;28;20208;-86
2024/01/04 13:15:13;;;;;;;4.53;1.97;;;;;;;;;;5014746;28;20223;-87
2024/01/04 13:17:40;;;;;;;3.07;1.50;;;;;;;;;;5013920;28;20874;-83
2024/01/04 13:20:08;;;;;;;2.97;1.73;;;;;;;;;;5013313;28;20223;-81
2024/01/04 13:22:35;;;;;;;4.37;2.13;;;;;;;;;;5013446;28;20682;-83
2024/01/04 13:25:02;;;;;;;2.87;1.40;;;;;;;;;;5014209;28;20203;-86
2024/01/04 13:27:30;;;;;;;3.37;1.97;;;;;;;;;;5014961;28;20219;-85
2024/01/04 13:29:58;;;;;;;2.60;1.40;;;;;;;;;;5013320;28;20233;-83
2024/01/04 13:32:25;;;;;;;2.03;1.83;;;;;;;;;;5011720;28;20227;-82
2024/01/04 13:34:52;;;;;;;5.13;1.50;;;;;;;;;;5013063;28;20234;-83
2024/01/04 13:37:19;;;;;;;3.47;1.60;;;;;;;;;;5012447;28;20231;-81
2024/01/04 13:39:47;;;;;;;4.13;1.50;;;;;;;;;;5013430;28;20223;-84
2024/01/04 13:42:15;;;;;;;4.07;2.00;;;;;;;;;;5013353;28;20227;-85
2024/01/04 13:44:43;;;;;;;2.67;1.70;;;;;;;;;;5013814;28;20204;-83
2024/01/04 13:47:11;;;;;;;6.13;2.00;;;;;;;;;;5005642;28;20231;-85
2024/01/04 13:49:39;;;;;;;2.23;1.57;;;;;;;;;;5013688;28;20227;-85
2024/01/04 13:52:06;;;;;;;2.63;1.77;;;;;;;;;;5011960;28;20227;-85
2024/01/04 13:54:33;;;;;;;2.17;1.70;;;;;;;;;;5014424;28;20714;-84
2024/01/04 13:57:00;;;;;;;1.60;1.50;;;;;;;;;;5013384;28;20235;-85
2024/01/04 13:59:30;;;;;;;4.67;1.57;;;;;;;;;;5014552;28;20231;-86
2024/01/04 14:01:58;;;;;;;2.33;1.63;;;;;;;;;;5014131;28;20440;-83
2024/01/04 14:04:25;;;;;;;2.17;1.90;;;;;;;;;;5013178;28;20195;-84
2024/01/04 14:06:52;;;;;;;3.83;2.20;;;;;;;;;;5012700;28;20231;-82
2024/01/04 14:09:20;;;;;;;2.93;1.70;;;;;;;;;;5012996;28;20696;-83
2024/01/04 14:11:47;;;;;;;2.70;2.13;;;;;;;;;;5012677;28;20250;-82
2024/01/04 14:14:17;;;;;;;3.80;1.83;;;;;;;;;;5013788;28;20211;-86
2024/01/04 14:16:44;;;;;;;1.67;1.60;;;;;;;;;;5013704;28;20722;-86
2024/01/04 14:19:12;;;;;;;3.83;1.30;;;;;;;;;;5005655;28;20227;-84
2024/01/04 14:21:39;;;;;;;3.17;1.87;;;;;;;;;;5012464;28;20244;-84
2024/01/04 14:24:06;;;;;;;3.80;1.60;;;;;;;;;;5012725;28;20204;-83
2024/01/04 14:26:33;;;;;;;3.43;1.60;;;;;;;;;;5012110;28;20308;-82
2024/01/04 14:29:00;;;;;;;4.27;1.63;;;;;;;;;;4995155;28;20239;-83
2024/01/04 14:31:28;;;;;;;1.60;1.50;;;;;;;;;;5004799;28;20771;-86
2024/01/04 14:33:55;;;;;;;1.40;1.30;;;;;;;;;;5012934;28;20298;-86
2024/01/04 14:36:23;;;;;;;2.97;1.50;;;;;;;;;;5012816;28;20234;-87
2024/01/04 14:38:50;;;;;;;3.87;1.77;;;;;;;;;;5013688;28;20235;-87
2024/01/04 14:41:17;;;;;;;2.03;1.80;;;;;;;;;;5008866;28;20227;-86
2024/01/04 14:43:44;;;;;;;5.47;2.27;;;;;;;;;;5013226;28;20246;-86
2024/01/04 14:46:20;;;;;;;2.40;1.93;;;;;;;;;;5003980;28;20239;-87